Time;durP1;ratioP1;P1;durP2;ratioP2;P2;SDS_P1;SDS_P2;PMS_P1;PMS_P2;Temp;Humidity;BMP_temperature;BMP_pressure;BME280_temperature;BME280_humidity;BME280_pressure;Samples;Min_cycle;Max_cycle;Signal;HPM_P1;HPM_P2
2021/12/10 00:02:02;;;;;;;19.40;10.30;;;;;;;;;;5063666;28;20184;-72
2021/12/10 00:04:31;;;;;;;18.77;10.77;;;;;;;;;;5049532;28;20271;-72
2021/12/10 00:07:00;;;;;;;25.33;11.03;;;;;;;;;;5064646;28;20284;-72
2021/12/10 00:09:27;;;;;;;17.03;10.20;;;;;;;;;;5063908;28;20610;-72
2021/12/10 00:11:54;;;;;;;16.30;9.90;;;;;;;;;;5064123;28;20184;-72
2021/12/10 00:14:24;;;;;;;22.37;10.77;;;;;;;;;;5062518;28;20303;-73
2021/12/10 00:16:49;;;;;;;24.73;10.10;;;;;;;;;;5077051;28;20172;-73
2021/12/10 00:19:32;;;;;;;32.00;12.13;;;;;;;;;;5065628;28;20253;-73
2021/12/10 00:21:58;;;;;;;29.70;12.67;;;;;;;;;;5076553;28;20184;-73
2021/12/10 00:24:26;;;;;;;22.00;11.40;;;;;;;;;;5074971;28;20208;-72
2021/12/10 00:26:52;;;;;;;23.53;11.77;;;;;;;;;;5068596;28;20204;-73
2021/12/10 00:29:18;;;;;;;21.33;13.07;;;;;;;;;;5058780;28;20201;-72
2021/12/10 00:31:50;;;;;;;23.13;11.93;;;;;;;;;;5071670;28;20195;-74
2021/12/10 00:34:27;;;;;;;23.53;12.50;;;;;;;;;;5069985;28;20173;-72
2021/12/10 00:36:53;;;;;;;23.03;12.83;;;;;;;;;;5078801;28;20191;-73
2021/12/10 00:39:22;;;;;;;27.27;12.53;;;;;;;;;;5075240;28;20701;-73
2021/12/10 00:41:47;;;;;;;25.17;12.67;;;;;;;;;;5074286;28;20648;-73
2021/12/10 00:44:12;;;;;;;23.87;13.80;;;;;;;;;;5079193;28;20183;-72
2021/12/10 00:46:37;;;;;;;21.60;13.03;;;;;;;;;;5076471;28;20208;-73
2021/12/10 00:49:03;;;;;;;21.37;14.07;;;;;;;;;;5074584;28;20173;-72
2021/12/10 00:51:28;;;;;;;21.60;14.20;;;;;;;;;;5072471;28;20195;-72
2021/12/10 00:53:54;;;;;;;26.00;14.30;;;;;;;;;;5075906;28;20234;-72
2021/12/10 00:56:19;;;;;;;24.47;15.23;;;;;;;;;;5071087;28;20551;-72
2021/12/10 00:58:44;;;;;;;28.93;14.40;;;;;;;;;;5083032;28;20172;-73
2021/12/10 01:01:15;;;;;;;28.57;12.53;;;;;;;;;;5075319;28;20223;-74
2021/12/10 01:03:45;;;;;;;24.63;14.30;;;;;;;;;;5069137;28;20272;-74
2021/12/10 01:06:13;;;;;;;21.53;12.83;;;;;;;;;;5072384;28;20281;-73
2021/12/10 01:08:39;;;;;;;30.67;13.70;;;;;;;;;;5064034;28;20211;-72
2021/12/10 01:11:14;;;;;;;26.37;14.03;;;;;;;;;;5067900;28;20670;-72
2021/12/10 01:13:42;;;;;;;25.63;13.03;;;;;;;;;;5068799;28;20188;-73
2021/12/10 01:24:50;;;;;;;26.63;14.70;;;;;;;;;;5065880;28;20172;-73
2021/12/10 01:27:28;;;;;;;22.00;14.80;;;;;;;;;;5058424;28;20222;-73
2021/12/10 01:29:56;;;;;;;23.77;14.10;;;;;;;;;;5071878;28;20612;-74
2021/12/10 01:32:22;;;;;;;21.77;14.43;;;;;;;;;;5080073;28;20215;-73
2021/12/10 01:34:48;;;;;;;21.63;14.93;;;;;;;;;;5068264;28;20181;-74
2021/12/10 01:37:13;;;;;;;24.83;13.60;;;;;;;;;;5079071;28;20184;-75
2021/12/10 01:39:39;;;;;;;22.27;14.70;;;;;;;;;;5068532;28;20625;-72
2021/12/10 01:45:05;;;;;;;20.60;13.03;;;;;;;;;;5045388;28;20361;-72
2021/12/10 01:47:32;;;;;;;18.90;12.30;;;;;;;;;;5068504;28;20203;-72
2021/12/10 01:49:58;;;;;;;20.97;11.77;;;;;;;;;;5080147;28;20193;-72
2021/12/10 01:52:24;;;;;;;21.40;12.13;;;;;;;;;;5079591;28;20530;-72
2021/12/10 01:54:50;;;;;;;17.33;10.30;;;;;;;;;;5074105;28;20268;-72
2021/12/10 01:57:16;;;;;;;18.60;11.27;;;;;;;;;;5061718;28;20380;-72
2021/12/10 01:59:42;;;;;;;17.83;9.77;;;;;;;;;;5061129;28;20207;-72
2021/12/10 02:02:10;;;;;;;21.70;11.03;;;;;;;;;;5063356;28;20606;-72
2021/12/10 02:04:36;;;;;;;14.27;9.63;;;;;;;;;;5060170;28;20492;-72
2021/12/10 02:07:03;;;;;;;15.80;8.83;;;;;;;;;;5075038;28;20635;-72
2021/12/10 02:09:28;;;;;;;16.50;8.73;;;;;;;;;;5072458;28;20215;-72
2021/12/10 02:11:53;;;;;;;16.07;8.43;;;;;;;;;;5078798;28;20176;-71
2021/12/10 02:14:19;;;;;;;15.67;8.47;;;;;;;;;;5074771;28;20185;-72
2021/12/10 02:16:45;;;;;;;16.67;8.97;;;;;;;;;;5067991;28;20193;-72
2021/12/10 02:19:11;;;;;;;14.23;8.33;;;;;;;;;;5077613;28;20180;-72
2021/12/10 02:21:39;;;;;;;15.03;7.40;;;;;;;;;;5073240;28;20196;-71
2021/12/10 02:24:05;;;;;;;11.63;7.53;;;;;;;;;;5057518;28;20177;-72
2021/12/10 02:26:33;;;;;;;10.97;6.80;;;;;;;;;;5072927;28;20686;-73
2021/12/10 02:28:58;;;;;;;13.07;6.83;;;;;;;;;;5080578;28;20661;-72
2021/12/10 02:31:24;;;;;;;14.43;7.07;;;;;;;;;;5069180;22;20253;-76
2021/12/10 02:33:49;;;;;;;13.27;6.87;;;;;;;;;;5049549;28;20178;-74
2021/12/10 02:36:14;;;;;;;15.23;6.00;;;;;;;;;;5047892;28;20193;-75
2021/12/10 02:38:41;;;;;;;10.80;5.67;;;;;;;;;;5057603;28;20277;-75
2021/12/10 02:41:07;;;;;;;13.03;6.67;;;;;;;;;;5072951;28;20265;-77
2021/12/10 02:43:32;;;;;;;9.37;5.50;;;;;;;;;;5060471;28;20181;-74
2021/12/10 02:45:58;;;;;;;8.03;5.40;;;;;;;;;;5057396;28;20658;-74
2021/12/10 02:48:24;;;;;;;14.93;7.30;;;;;;;;;;5051507;28;20671;-75
2021/12/10 02:50:49;;;;;;;8.97;6.00;;;;;;;;;;5050872;28;20562;-77
2021/12/10 02:53:16;;;;;;;9.90;5.40;;;;;;;;;;5060435;28;20631;-77
2021/12/10 02:55:42;;;;;;;10.33;6.13;;;;;;;;;;5055998;28;20196;-77
2021/12/10 02:58:10;;;;;;;14.53;5.97;;;;;;;;;;5049363;28;20189;-77
2021/12/10 03:00:39;;;;;;;11.57;6.10;;;;;;;;;;5060487;28;20685;-75
2021/12/10 03:03:04;;;;;;;13.27;6.27;;;;;;;;;;5054282;28;20255;-74
2021/12/10 03:05:30;;;;;;;10.47;6.73;;;;;;;;;;5051295;28;20656;-75
2021/12/10 03:07:55;;;;;;;15.43;6.27;;;;;;;;;;5047665;28;20236;-75
2021/12/10 03:10:22;;;;;;;9.03;6.40;;;;;;;;;;5053275;28;20300;-77
2021/12/10 03:12:47;;;;;;;9.30;6.33;;;;;;;;;;5065429;28;20353;-74
2021/12/10 03:15:13;;;;;;;11.83;6.70;;;;;;;;;;5050743;28;20759;-75
2021/12/10 03:17:38;;;;;;;8.70;6.50;;;;;;;;;;5062330;28;20189;-75
2021/12/10 03:20:06;;;;;;;11.03;6.60;;;;;;;;;;5052514;28;20205;-75
2021/12/10 03:22:32;;;;;;;13.30;6.73;;;;;;;;;;5048873;28;20176;-75
2021/12/10 03:24:58;;;;;;;13.13;6.97;;;;;;;;;;5051078;28;20191;-75
2021/12/10 03:27:23;;;;;;;17.73;7.30;;;;;;;;;;5054550;28;20206;-76
2021/12/10 03:29:49;;;;;;;10.60;6.60;;;;;;;;;;5056476;28;20210;-76
2021/12/10 03:32:16;;;;;;;12.23;6.17;;;;;;;;;;5054225;28;20173;-74
2021/12/10 03:34:42;;;;;;;11.77;5.67;;;;;;;;;;5052337;28;20187;-75
2021/12/10 03:37:07;;;;;;;8.90;6.17;;;;;;;;;;5054939;28;20585;-75
2021/12/10 03:39:33;;;;;;;10.47;6.03;;;;;;;;;;5052157;28;20230;-75
2021/12/10 03:41:59;;;;;;;9.87;5.53;;;;;;;;;;5059863;28;20279;-76
2021/12/10 03:44:24;;;;;;;12.40;5.93;;;;;;;;;;5055425;28;20579;-75
2021/12/10 03:46:51;;;;;;;12.13;5.77;;;;;;;;;;5060178;28;20297;-75
2021/12/10 03:49:16;;;;;;;12.90;6.63;;;;;;;;;;5048618;28;20243;-75
2021/12/10 03:51:41;;;;;;;11.57;5.57;;;;;;;;;;5054110;28;20204;-75
2021/12/10 03:54:07;;;;;;;9.03;5.07;;;;;;;;;;5052182;28;20220;-76
2021/12/10 03:56:33;;;;;;;12.07;5.77;;;;;;;;;;5046801;28;20235;-75
2021/12/10 03:58:59;;;;;;;12.37;6.43;;;;;;;;;;5046892;28;20288;-75
2021/12/10 04:01:26;;;;;;;10.27;4.70;;;;;;;;;;5047830;28;20197;-75
2021/12/10 04:03:53;;;;;;;9.00;4.70;;;;;;;;;;5048861;28;20181;-75
2021/12/10 04:06:18;;;;;;;8.30;4.87;;;;;;;;;;5055801;28;20189;-75
2021/12/10 04:08:44;;;;;;;11.43;4.10;;;;;;;;;;5052727;28;20562;-75
2021/12/10 04:11:10;;;;;;;9.27;4.40;;;;;;;;;;5057838;28;20254;-75
2021/12/10 04:13:35;;;;;;;8.47;4.53;;;;;;;;;;5050287;28;20177;-76
2021/12/10 04:16:02;;;;;;;11.20;4.33;;;;;;;;;;5054087;28;20552;-75
2021/12/10 04:18:27;;;;;;;5.10;3.77;;;;;;;;;;5049178;28;20651;-75
2021/12/10 04:20:52;;;;;;;16.90;6.83;;;;;;;;;;5048477;28;20247;-75
2021/12/10 04:23:19;;;;;;;6.57;3.77;;;;;;;;;;5053484;28;20210;-75
2021/12/10 04:25:44;;;;;;;8.23;3.50;;;;;;;;;;5049578;28;20639;-75
2021/12/10 04:28:11;;;;;;;9.73;4.23;;;;;;;;;;5054719;28;20198;-76
2021/12/10 04:30:40;;;;;;;10.00;3.53;;;;;;;;;;5058523;28;20205;-75
2021/12/10 04:33:12;;;;;;;5.90;3.50;;;;;;;;;;5049767;28;20177;-76
2021/12/10 04:35:38;;;;;;;6.30;3.40;;;;;;;;;;5053111;28;20170;-75
2021/12/10 04:38:03;;;;;;;7.90;3.63;;;;;;;;;;5051468;28;20290;-75
2021/12/10 04:40:29;;;;;;;6.67;3.30;;;;;;;;;;5059477;28;20682;-75
2021/12/10 04:42:54;;;;;;;10.60;4.00;;;;;;;;;;5052588;28;20265;-75
2021/12/10 04:45:19;;;;;;;6.97;3.30;;;;;;;;;;5050180;28;20693;-74
2021/12/10 04:47:45;;;;;;;9.77;4.07;;;;;;;;;;5050741;28;20216;-75
2021/12/10 04:50:11;;;;;;;9.00;3.60;;;;;;;;;;5054605;28;20204;-75
2021/12/10 04:52:36;;;;;;;6.90;3.20;;;;;;;;;;5062792;28;20182;-75
2021/12/10 04:55:06;;;;;;;6.10;3.67;;;;;;;;;;5048001;28;20185;-75
2021/12/10 04:57:32;;;;;;;6.93;3.67;;;;;;;;;;5059554;28;20181;-75
2021/12/10 04:59:57;;;;;;;8.10;3.43;;;;;;;;;;5057893;28;20258;-75
2021/12/10 05:02:23;;;;;;;10.93;3.50;;;;;;;;;;5056769;28;20230;-74
2021/12/10 05:04:48;;;;;;;7.63;3.53;;;;;;;;;;5051470;28;20194;-76
2021/12/10 05:07:14;;;;;;;6.80;3.57;;;;;;;;;;5050293;28;20651;-74
2021/12/10 05:09:40;;;;;;;12.07;4.13;;;;;;;;;;5053632;28;20254;-76
2021/12/10 05:12:05;;;;;;;7.40;5.23;;;;;;;;;;5047098;28;20265;-76
2021/12/10 05:14:32;;;;;;;6.97;3.80;;;;;;;;;;5052861;28;20196;-75
2021/12/10 05:17:03;;;;;;;6.00;3.63;;;;;;;;;;5055493;28;20272;-75
2021/12/10 05:19:28;;;;;;;9.13;4.03;;;;;;;;;;5066462;28;20188;-75
2021/12/10 05:21:54;;;;;;;7.87;3.83;;;;;;;;;;5057519;28;20207;-76
2021/12/10 05:24:19;;;;;;;10.27;4.07;;;;;;;;;;5051403;28;20201;-75
2021/12/10 05:26:45;;;;;;;11.00;4.30;;;;;;;;;;5050855;28;20268;-75
2021/12/10 05:29:10;;;;;;;8.40;4.03;;;;;;;;;;5043589;28;20557;-75
2021/12/10 05:31:39;;;;;;;5.77;3.20;;;;;;;;;;5056989;28;20213;-75
2021/12/10 05:34:04;;;;;;;6.23;3.17;;;;;;;;;;5052272;28;20189;-76
2021/12/10 05:36:29;;;;;;;7.47;3.50;;;;;;;;;;5051702;28;20191;-74
2021/12/10 05:38:54;;;;;;;6.90;3.43;;;;;;;;;;5055611;28;20189;-75
2021/12/10 05:41:20;;;;;;;6.77;2.80;;;;;;;;;;5056512;28;20241;-75
2021/12/10 05:43:45;;;;;;;6.67;3.33;;;;;;;;;;5049634;28;20368;-75
2021/12/10 05:46:12;;;;;;;12.00;3.73;;;;;;;;;;5044939;28;20195;-76
2021/12/10 05:48:37;;;;;;;9.77;3.10;;;;;;;;;;5054270;28;20202;-76
2021/12/10 05:51:02;;;;;;;7.57;2.97;;;;;;;;;;5047980;28;20983;-74
2021/12/10 05:53:28;;;;;;;9.23;2.70;;;;;;;;;;5060972;28;20995;-75
2021/12/10 05:55:53;;;;;;;6.77;2.70;;;;;;;;;;5057756;28;20230;-75
2021/12/10 05:58:19;;;;;;;9.57;3.37;;;;;;;;;;5051435;28;20238;-75
2021/12/10 06:00:46;;;;;;;8.97;3.30;;;;;;;;;;5048503;28;20205;-76
2021/12/10 06:03:12;;;;;;;9.90;3.53;;;;;;;;;;5050322;28;20563;-75
2021/12/10 06:05:38;;;;;;;10.50;3.13;;;;;;;;;;5054224;28;20210;-76
2021/12/10 06:08:03;;;;;;;7.37;3.70;;;;;;;;;;5051164;28;20214;-76
2021/12/10 06:10:28;;;;;;;10.03;3.40;;;;;;;;;;5045795;28;20220;-75
2021/12/10 06:12:54;;;;;;;7.23;3.43;;;;;;;;;;5053523;28;20256;-74
2021/12/10 06:15:20;;;;;;;10.27;3.40;;;;;;;;;;5052436;28;20579;-76
2021/12/10 06:17:45;;;;;;;13.10;3.63;;;;;;;;;;5053798;28;20250;-76
2021/12/10 06:20:16;;;;;;;7.27;4.00;;;;;;;;;;5050025;28;20670;-77
2021/12/10 06:22:41;;;;;;;6.60;2.67;;;;;;;;;;5056404;28;20203;-74
2021/12/10 06:25:07;;;;;;;14.43;3.53;;;;;;;;;;5057296;28;20181;-74
2021/12/10 06:27:32;;;;;;;6.33;3.13;;;;;;;;;;5054356;28;20278;-75
2021/12/10 06:29:58;;;;;;;8.73;3.77;;;;;;;;;;5053167;28;20245;-75
2021/12/10 06:32:25;;;;;;;8.87;4.80;;;;;;;;;;5055189;28;20182;-75
2021/12/10 06:34:50;;;;;;;7.13;3.40;;;;;;;;;;5059917;28;20185;-75
2021/12/10 06:37:15;;;;;;;5.10;2.77;;;;;;;;;;5060074;28;20247;-75
2021/12/10 06:39:41;;;;;;;6.73;3.80;;;;;;;;;;5056447;28;20217;-75
2021/12/10 06:42:06;;;;;;;7.33;2.83;;;;;;;;;;5047739;28;20562;-75
2021/12/10 06:44:31;;;;;;;9.33;3.63;;;;;;;;;;5048095;28;20268;-75
2021/12/10 06:46:56;;;;;;;9.93;4.30;;;;;;;;;;5047384;28;20233;-74
2021/12/10 06:49:22;;;;;;;6.70;3.30;;;;;;;;;;5058129;28;20240;-75
2021/12/10 06:51:47;;;;;;;8.70;3.37;;;;;;;;;;5050092;28;20182;-75
2021/12/10 06:54:12;;;;;;;7.93;3.40;;;;;;;;;;5049596;28;20181;-74
2021/12/10 06:56:37;;;;;;;4.43;2.63;;;;;;;;;;5048496;28;20654;-75
2021/12/10 06:59:04;;;;;;;6.73;3.20;;;;;;;;;;5050615;28;20181;-75
2021/12/10 07:01:32;;;;;;;5.93;2.63;;;;;;;;;;5051799;28;20209;-75
2021/12/10 07:03:58;;;;;;;5.47;3.10;;;;;;;;;;5051885;28;20227;-75
2021/12/10 07:06:24;;;;;;;5.50;2.67;;;;;;;;;;5056199;28;20197;-75
2021/12/10 07:08:50;;;;;;;4.83;2.93;;;;;;;;;;5046467;28;20555;-75
2021/12/10 07:11:16;;;;;;;4.77;2.77;;;;;;;;;;5047579;28;20220;-75
2021/12/10 07:13:43;;;;;;;10.43;3.53;;;;;;;;;;5047131;28;20182;-74
2021/12/10 07:16:09;;;;;;;7.87;2.43;;;;;;;;;;5047374;28;20866;-75
2021/12/10 07:18:34;;;;;;;5.83;2.70;;;;;;;;;;5048755;28;20173;-75
2021/12/10 07:21:00;;;;;;;7.90;2.40;;;;;;;;;;5047301;28;20593;-75
2021/12/10 07:23:25;;;;;;;7.53;3.00;;;;;;;;;;5047489;28;20269;-74
2021/12/10 07:25:51;;;;;;;7.03;2.40;;;;;;;;;;5048260;28;20177;-75
2021/12/10 07:28:16;;;;;;;6.73;2.60;;;;;;;;;;5046961;28;20213;-75
2021/12/10 07:30:42;;;;;;;5.40;2.50;;;;;;;;;;5046439;28;20674;-75
2021/12/10 07:33:08;;;;;;;6.33;2.40;;;;;;;;;;5047294;28;20194;-75
2021/12/10 07:35:33;;;;;;;8.17;3.53;;;;;;;;;;5047677;28;20273;-75
2021/12/10 07:37:59;;;;;;;7.93;3.07;;;;;;;;;;5050344;28;20655;-75
2021/12/10 07:40:26;;;;;;;9.87;3.57;;;;;;;;;;5046824;28;20204;-75
2021/12/10 07:42:51;;;;;;;5.20;2.20;;;;;;;;;;5049235;28;20189;-76
2021/12/10 07:45:17;;;;;;;8.57;3.03;;;;;;;;;;5052551;28;20181;-75
2021/12/10 07:47:43;;;;;;;7.30;3.07;;;;;;;;;;5059845;28;20272;-75
2021/12/10 07:50:11;;;;;;;5.83;3.30;;;;;;;;;;5047162;28;20557;-75
2021/12/10 07:52:37;;;;;;;5.03;3.30;;;;;;;;;;5050062;28;20177;-75
2021/12/10 07:55:04;;;;;;;9.60;3.07;;;;;;;;;;5051563;28;20182;-75
2021/12/10 07:57:29;;;;;;;5.30;3.10;;;;;;;;;;5047524;28;20182;-75
2021/12/10 07:59:55;;;;;;;14.40;3.43;;;;;;;;;;5053223;28;20242;-75
2021/12/10 08:02:20;;;;;;;8.87;3.00;;;;;;;;;;5047684;28;20230;-75
2021/12/10 08:04:46;;;;;;;6.53;3.00;;;;;;;;;;5047391;28;20315;-75
2021/12/10 08:07:13;;;;;;;4.23;2.77;;;;;;;;;;5053102;28;20201;-76
2021/12/10 08:09:38;;;;;;;9.97;3.10;;;;;;;;;;5048836;28;20191;-75
2021/12/10 08:12:03;;;;;;;9.20;3.20;;;;;;;;;;5054358;28;20192;-75
2021/12/10 08:14:28;;;;;;;7.27;2.97;;;;;;;;;;5060230;28;20169;-75
2021/12/10 08:16:54;;;;;;;11.77;3.97;;;;;;;;;;5062997;28;20186;-75
2021/12/10 08:19:19;;;;;;;8.10;3.27;;;;;;;;;;5051921;28;20268;-75
2021/12/10 08:21:44;;;;;;;4.93;3.43;;;;;;;;;;5052320;28;20201;-75
2021/12/10 08:24:10;;;;;;;10.87;3.47;;;;;;;;;;5044604;28;20228;-75
2021/12/10 08:26:36;;;;;;;7.20;2.60;;;;;;;;;;5055978;28;20234;-75
2021/12/10 08:29:01;;;;;;;8.50;3.43;;;;;;;;;;5050204;28;20189;-75
2021/12/10 08:31:28;;;;;;;9.90;2.90;;;;;;;;;;5081337;22;20231;-72
2021/12/10 08:33:54;;;;;;;5.97;2.73;;;;;;;;;;5067796;28;20177;-73
2021/12/10 08:36:20;;;;;;;10.97;3.27;;;;;;;;;;5072007;28;20986;-74
2021/12/10 08:38:45;;;;;;;5.73;3.17;;;;;;;;;;5066413;28;20181;-71
2021/12/10 08:41:13;;;;;;;9.80;2.70;;;;;;;;;;5070940;28;20253;-71
2021/12/10 08:43:39;;;;;;;8.03;2.73;;;;;;;;;;5077744;28;20181;-72
2021/12/10 08:46:05;;;;;;;4.20;2.43;;;;;;;;;;5068002;28;20314;-71
2021/12/10 08:48:31;;;;;;;8.57;3.13;;;;;;;;;;5064068;28;20261;-71
2021/12/10 08:50:59;;;;;;;5.97;3.00;;;;;;;;;;5063088;28;20592;-73
2021/12/10 08:53:24;;;;;;;8.83;3.50;;;;;;;;;;5070010;28;20177;-71
2021/12/10 08:55:52;;;;;;;5.13;2.83;;;;;;;;;;5069818;28;20547;-71
2021/12/10 08:58:17;;;;;;;6.90;2.33;;;;;;;;;;5069048;28;20184;-71
2021/12/10 09:00:45;;;;;;;6.67;3.20;;;;;;;;;;5072760;28;20209;-71
2021/12/10 09:03:10;;;;;;;7.57;3.53;;;;;;;;;;5063678;28;20264;-72
2021/12/10 09:05:36;;;;;;;9.30;3.00;;;;;;;;;;5064704;28;20710;-71
2021/12/10 09:08:01;;;;;;;6.90;2.73;;;;;;;;;;5070210;28;20215;-71
2021/12/10 09:10:30;;;;;;;6.23;2.60;;;;;;;;;;5071178;28;20204;-72
2021/12/10 09:12:55;;;;;;;7.93;2.93;;;;;;;;;;5076227;28;20188;-74
2021/12/10 09:15:23;;;;;;;7.57;3.73;;;;;;;;;;5065033;28;20270;-72
2021/12/10 09:17:50;;;;;;;5.47;3.10;;;;;;;;;;5065215;28;20226;-74
2021/12/10 09:20:18;;;;;;;6.57;3.43;;;;;;;;;;5056706;28;20205;-71
2021/12/10 09:22:44;;;;;;;7.03;3.80;;;;;;;;;;5075753;28;20181;-71
2021/12/10 09:25:10;;;;;;;10.00;3.20;;;;;;;;;;5064497;28;20192;-71
2021/12/10 09:27:35;;;;;;;7.47;3.90;;;;;;;;;;5070036;28;20204;-71
2021/12/10 09:30:01;;;;;;;7.67;3.30;;;;;;;;;;5064889;28;20204;-73
2021/12/10 09:32:26;;;;;;;11.93;3.93;;;;;;;;;;5069451;28;20185;-71
2021/12/10 09:34:53;;;;;;;5.53;3.97;;;;;;;;;;5066126;28;20571;-71
2021/12/10 09:37:19;;;;;;;7.93;3.87;;;;;;;;;;5074362;28;20184;-71
2021/12/10 09:39:47;;;;;;;18.23;4.60;;;;;;;;;;5072768;28;20204;-71
2021/12/10 09:42:12;;;;;;;10.37;4.50;;;;;;;;;;5064903;28;20191;-71
2021/12/10 09:44:37;;;;;;;10.53;4.70;;;;;;;;;;5077645;28;20177;-73
2021/12/10 09:47:04;;;;;;;7.70;4.10;;;;;;;;;;5074945;28;20333;-71
2021/12/10 09:49:30;;;;;;;5.43;3.90;;;;;;;;;;5068858;28;20253;-72
2021/12/10 09:51:56;;;;;;;13.30;4.77;;;;;;;;;;5074512;28;20695;-70
2021/12/10 09:54:22;;;;;;;9.10;4.60;;;;;;;;;;5081188;28;20564;-71
2021/12/10 09:56:50;;;;;;;11.17;4.27;;;;;;;;;;5063391;28;20178;-71
2021/12/10 09:59:16;;;;;;;7.43;4.20;;;;;;;;;;5072249;28;20662;-72
2021/12/10 10:01:42;;;;;;;10.93;4.77;;;;;;;;;;5077048;28;20187;-71
2021/12/10 10:04:09;;;;;;;11.93;4.60;;;;;;;;;;5075928;28;20549;-72
2021/12/10 10:06:37;;;;;;;10.00;5.83;;;;;;;;;;5078518;28;20173;-72
2021/12/10 10:09:06;;;;;;;8.23;4.70;;;;;;;;;;5069162;28;20199;-73
2021/12/10 10:11:33;;;;;;;8.10;4.40;;;;;;;;;;5064631;28;20598;-71
2021/12/10 10:14:01;;;;;;;8.83;4.47;;;;;;;;;;5074878;28;20867;-71
2021/12/10 10:16:27;;;;;;;10.87;5.03;;;;;;;;;;5065178;28;20192;-72
2021/12/10 10:18:52;;;;;;;9.13;4.70;;;;;;;;;;5075381;28;20321;-71
2021/12/10 10:21:25;;;;;;;9.50;4.77;;;;;;;;;;5073658;28;20233;-72
2021/12/10 10:23:50;;;;;;;6.80;4.50;;;;;;;;;;5064184;28;20663;-73
2021/12/10 10:26:22;;;;;;;9.97;5.30;;;;;;;;;;5077730;28;20196;-74
2021/12/10 10:28:47;;;;;;;13.93;5.27;;;;;;;;;;5069888;28;20293;-71
2021/12/10 10:31:17;;;;;;;7.60;5.07;;;;;;;;;;5072151;28;20209;-71
2021/12/10 10:33:45;;;;;;;12.33;5.00;;;;;;;;;;5074648;28;20173;-73
2021/12/10 10:36:19;;;;;;;9.47;4.63;;;;;;;;;;5068200;28;20173;-72
2021/12/10 10:38:49;;;;;;;12.37;5.30;;;;;;;;;;5064644;28;20260;-70
2021/12/10 10:41:15;;;;;;;11.53;5.30;;;;;;;;;;5081844;28;20228;-73
2021/12/10 10:43:41;;;;;;;10.00;4.20;;;;;;;;;;5074654;28;20189;-73
2021/12/10 10:46:06;;;;;;;10.77;4.97;;;;;;;;;;5082082;28;20192;-73
2021/12/10 10:48:32;;;;;;;10.63;4.43;;;;;;;;;;5068111;28;20262;-73
2021/12/10 10:50:58;;;;;;;7.37;4.13;;;;;;;;;;5073620;28;20223;-74
2021/12/10 10:53:27;;;;;;;8.60;4.40;;;;;;;;;;5074924;28;20293;-73
2021/12/10 10:55:56;;;;;;;6.60;3.80;;;;;;;;;;5073119;28;20506;-73
2021/12/10 10:58:23;;;;;;;7.73;4.47;;;;;;;;;;5063938;28;20219;-72
2021/12/10 11:00:58;;;;;;;10.17;4.43;;;;;;;;;;5063914;28;20292;-73
2021/12/10 11:03:25;;;;;;;11.30;4.60;;;;;;;;;;5066781;28;20267;-73
2021/12/10 11:05:52;;;;;;;12.93;4.57;;;;;;;;;;5072989;28;20301;-75
2021/12/10 11:08:25;;;;;;;9.77;5.03;;;;;;;;;;5063678;28;20209;-71
2021/12/10 11:10:51;;;;;;;10.30;4.70;;;;;;;;;;5073381;28;20196;-71
2021/12/10 11:13:21;;;;;;;7.17;3.87;;;;;;;;;;5066755;28;20183;-73
2021/12/10 11:16:18;;;;;;;7.57;4.20;;;;;;;;;;5067493;28;20638;-73
2021/12/10 11:18:46;;;;;;;8.47;3.67;;;;;;;;;;5055853;28;20279;-73
2021/12/10 11:21:11;;;;;;;7.03;3.97;;;;;;;;;;5071488;28;20197;-73
2021/12/10 11:23:39;;;;;;;14.47;5.20;;;;;;;;;;5070197;28;20673;-72
2021/12/10 11:26:04;;;;;;;7.97;4.33;;;;;;;;;;5053793;28;20177;-71
2021/12/10 11:28:32;;;;;;;10.30;4.57;;;;;;;;;;5061124;28;20216;-71
2021/12/10 11:31:07;;;;;;;7.37;3.97;;;;;;;;;;5076160;28;20220;-71
2021/12/10 11:33:39;;;;;;;7.83;3.93;;;;;;;;;;5061642;28;20184;-71
2021/12/10 11:36:07;;;;;;;6.23;3.50;;;;;;;;;;5068596;28;20286;-71
2021/12/10 11:38:33;;;;;;;8.43;4.20;;;;;;;;;;5062417;28;20192;-72
2021/12/10 11:41:06;;;;;;;5.40;4.30;;;;;;;;;;5062681;28;20715;-70
2021/12/10 11:44:06;;;;;;;8.33;4.30;;;;;;;;;;5061767;28;20259;-72
2021/12/10 11:46:48;;;;;;;8.07;3.50;;;;;;;;;;5063735;28;20189;-71
2021/12/10 11:49:13;;;;;;;5.90;3.63;;;;;;;;;;5065363;28;20181;-71
2021/12/10 11:51:38;;;;;;;9.65;3.90;;;;;;;;;;5064182;28;20262;-71
2021/12/10 11:54:06;;;;;;;11.80;4.43;;;;;;;;;;5064026;28;20177;-73
2021/12/10 11:56:34;;;;;;;8.10;3.97;;;;;;;;;;5075833;28;20209;-71
2021/12/10 11:59:14;;;;;;;7.67;3.77;;;;;;;;;;5067778;28;20264;-73
2021/12/10 12:01:48;;;;;;;7.17;4.33;;;;;;;;;;5074571;28;20192;-71
2021/12/10 12:04:15;;;;;;;8.10;4.90;;;;;;;;;;5066395;28;20268;-71
2021/12/10 12:06:41;;;;;;;10.70;4.57;;;;;;;;;;5072652;28;20674;-71
2021/12/10 12:09:06;;;;;;;8.70;4.77;;;;;;;;;;5066807;28;20262;-71
2021/12/10 12:11:31;;;;;;;9.60;5.13;;;;;;;;;;5072000;28;20189;-71
2021/12/10 12:13:58;;;;;;;10.77;5.30;;;;;;;;;;5068134;28;20188;-72
2021/12/10 12:16:27;;;;;;;9.07;4.83;;;;;;;;;;5070479;28;20165;-71
2021/12/10 12:18:59;;;;;;;9.50;4.87;;;;;;;;;;5075578;28;20181;-72
2021/12/10 12:26:51;;;;;;;7.37;4.53;;;;;;;;;;5065922;28;20226;-72
2021/12/10 12:29:17;;;;;;;9.73;4.80;;;;;;;;;;5072864;28;20185;-71
2021/12/10 12:31:47;;;;;;;9.17;4.70;;;;;;;;;;5070867;28;20279;-72
2021/12/10 12:34:14;;;;;;;8.97;4.57;;;;;;;;;;5068159;28;20180;-71
2021/12/10 12:36:39;;;;;;;9.00;4.00;;;;;;;;;;5070742;28;20230;-71
2021/12/10 12:39:07;;;;;;;6.13;4.50;;;;;;;;;;5063221;28;20177;-71
2021/12/10 12:41:35;;;;;;;11.80;4.63;;;;;;;;;;5063569;28;20207;-71
2021/12/10 12:44:26;;;;;;;12.90;5.37;;;;;;;;;;5069563;28;20597;-73
2021/12/10 12:47:07;;;;;;;5.83;4.60;;;;;;;;;;5065606;28;20680;-72
2021/12/10 12:49:34;;;;;;;9.50;5.13;;;;;;;;;;5069691;28;20217;-72
2021/12/10 12:52:05;;;;;;;5.37;3.60;;;;;;;;;;5071415;28;20201;-71
2021/12/10 12:54:30;;;;;;;11.90;4.37;;;;;;;;;;5066277;28;20173;-71
2021/12/10 12:56:56;;;;;;;6.60;3.73;;;;;;;;;;5070681;28;20196;-72
2021/12/10 12:59:21;;;;;;;9.83;4.63;;;;;;;;;;5066813;28;20188;-71
2021/12/10 13:01:48;;;;;;;4.53;3.73;;;;;;;;;;5061845;28;20201;-72
2021/12/10 13:04:16;;;;;;;8.57;3.80;;;;;;;;;;5071911;28;20181;-71
2021/12/10 13:06:49;;;;;;;6.60;3.77;;;;;;;;;;5071874;28;20181;-72
2021/12/10 13:09:23;;;;;;;10.57;3.80;;;;;;;;;;5071872;28;20185;-72
2021/12/10 13:12:03;;;;;;;8.23;3.83;;;;;;;;;;5069734;28;20220;-72
2021/12/10 13:14:34;;;;;;;6.97;3.70;;;;;;;;;;5066433;28;20518;-71
2021/12/10 13:17:10;;;;;;;8.93;3.80;;;;;;;;;;5061714;28;20670;-72
2021/12/10 13:19:35;;;;;;;6.83;4.30;;;;;;;;;;5070058;28;20183;-71
2021/12/10 13:22:07;;;;;;;7.87;3.53;;;;;;;;;;5074878;28;20202;-71
2021/12/10 13:24:32;;;;;;;7.33;3.83;;;;;;;;;;5065815;28;20284;-72
2021/12/10 13:26:59;;;;;;;6.67;3.50;;;;;;;;;;5063563;28;20876;-72
2021/12/10 13:29:25;;;;;;;7.23;3.40;;;;;;;;;;5063702;28;20226;-72
2021/12/10 13:31:50;;;;;;;8.17;3.80;;;;;;;;;;5062239;28;20576;-71
2021/12/10 13:34:15;;;;;;;10.47;5.53;;;;;;;;;;5061640;28;20185;-71
2021/12/10 13:36:41;;;;;;;6.20;4.10;;;;;;;;;;5063048;28;20615;-71
2021/12/10 13:39:09;;;;;;;7.67;3.70;;;;;;;;;;5064630;28;20185;-73
2021/12/10 13:41:34;;;;;;;6.03;4.50;;;;;;;;;;5061702;28;20583;-71
2021/12/10 13:44:07;;;;;;;7.73;4.33;;;;;;;;;;5062463;28;20197;-71
2021/12/10 13:46:43;;;;;;;7.07;3.90;;;;;;;;;;5067886;28;20164;-71
2021/12/10 13:49:09;;;;;;;8.43;4.10;;;;;;;;;;5066820;28;20211;-72
2021/12/10 13:51:35;;;;;;;6.50;3.87;;;;;;;;;;5069586;28;20200;-72
2021/12/10 13:54:00;;;;;;;6.37;3.93;;;;;;;;;;5066990;28;20184;-72
2021/12/10 13:56:25;;;;;;;10.50;4.50;;;;;;;;;;5066276;28;20182;-72
2021/12/10 13:58:50;;;;;;;8.50;4.57;;;;;;;;;;5070723;28;20320;-72
2021/12/10 14:01:26;;;;;;;10.40;4.85;;;;;;;;;;5069455;28;20581;-71
2021/12/10 14:03:51;;;;;;;11.53;4.87;;;;;;;;;;5073587;28;20184;-71
2021/12/10 14:06:19;;;;;;;8.98;4.03;;;;;;;;;;5067068;28;20727;-71
2021/12/10 14:08:46;;;;;;;12.83;4.30;;;;;;;;;;5064992;28;20209;-71
2021/12/10 14:11:29;;;;;;;18.20;5.43;;;;;;;;;;5077690;28;20710;-71
2021/12/10 14:14:02;;;;;;;8.80;5.37;;;;;;;;;;5075474;28;20204;-71
2021/12/10 14:16:46;;;;;;;9.03;4.87;;;;;;;;;;5065989;28;20188;-71
2021/12/10 14:19:26;;;;;;;8.03;5.00;;;;;;;;;;5070842;28;20192;-71
2021/12/10 14:21:51;;;;;;;9.63;5.67;;;;;;;;;;5064671;28;20205;-71
2021/12/10 14:24:29;;;;;;;8.87;5.00;;;;;;;;;;5064508;28;20215;-71
2021/12/10 14:27:07;;;;;;;13.50;4.73;;;;;;;;;;5065197;28;20267;-71
2021/12/10 14:29:32;;;;;;;9.10;5.60;;;;;;;;;;5063105;28;21501;-71
2021/12/10 14:31:57;;;;;;;6.87;4.30;;;;;;;;;;5115049;22;20231;-77
2021/12/10 14:34:23;;;;;;;9.40;4.37;;;;;;;;;;5106370;28;20255;-77
2021/12/10 14:37:06;;;;;;;10.13;3.80;;;;;;;;;;5108526;28;20179;-77
2021/12/10 14:39:31;;;;;;;8.07;4.33;;;;;;;;;;5108057;28;20176;-77
2021/12/10 14:41:56;;;;;;;19.07;5.97;;;;;;;;;;5086483;28;20211;-78
2021/12/10 14:44:30;;;;;;;12.90;4.73;;;;;;;;;;5075477;28;20176;-78
2021/12/10 14:47:00;;;;;;;6.00;4.30;;;;;;;;;;5079019;28;20195;-77
2021/12/10 14:49:30;;;;;;;9.70;4.37;;;;;;;;;;5093672;28;20168;-77
2021/12/10 14:52:01;;;;;;;10.23;4.23;;;;;;;;;;5091223;28;20257;-77
2021/12/10 14:54:26;;;;;;;8.77;4.37;;;;;;;;;;5093849;28;20176;-78